Vintondale, PA (15961)

3:37 PM EDT on July 23, 2016 (GMT -0400)
Chickaree Summit Rainwise Station | | Change Station

Elev 1759 ft 40.42 °N, 78.87 °W | Updated 4 seconds ago

Light Thunderstorms and Rain
Light Thunderstorm Rain
71.0 °F
Feels Like 71.0 °F
N
0.0
Wind Variable Wind from South
Gusts 2.0 mph

Today
High -- | Low -- °F
--% Chance of Precip.
Yesterday
High -- | Low -- °F
Precip. -- in
Pressure 30.05 in
Visibility 7.0 miles
Clouds Mostly Cloudy 3900 ft
Mostly Cloudy 6500 ft
Overcast 9500 ft
Dew Point 70 °F
Humidity 99%
Rainfall 0.10 in
Snow Depth Not available.
6:05 AM 8:38 PM
Waning Gibbous, 83% visible
SPECI KJST 231933Z AUTO 04009KT 7SM -TSRA BKN039 BKN065 OVC095 22/14 A3005 RMK AO2 WSHFT 1913 RAB11 P0001 T02220144
Pressure 30.05 in
Visibility 7.0 miles
Clouds Mostly Cloudy 3900 ft
Mostly Cloudy 6500 ft
Overcast 9500 ft
Dew Point 70 °F
Humidity 99%
Rainfall 0.10 in
Snow Depth Not available.
6:05 AM 8:38 PM
Waning Gibbous, 83% visible
SPECI KJST 231933Z AUTO 04009KT 7SM -TSRA BKN039 BKN065 OVC095 22/14 A3005 RMK AO2 WSHFT 1913 RAB11 P0001 T02220144

10-Day Weather Forecast

Almanac

Astronomy

Jul. 23, 2016 Rise Set
Actual Time
Civil Twilight
Nautical Twilight
Astronomical Twilight
Moon
Length of Visible Light
Length of Day
Tomorrow will be .
, % of the Moon is Illuminated

Today's Extremes

State Highs State Lows

Community

WunderPhotos

Upload Photos

1,926,908 photos uploaded!

WunderBlog® & News

Nearby

Air Quality

  Air Quality AQ Index Pollutant
Not available.

Snow Depth

Station Depth Elevation

Earthquake Activity

City Distance Mag. Time & Date
Minimum magnitude displayed is 2.5.

Coastal Water Temperatures

Place Temperature

Stations

Nearby Weather Stations

Station Location Temp. Windchill Dew Point Humidity Wind Precip. Elev Updated Type
                   

Watches & Warnings

There are currently no watches in effect.